• Join FlightAware (Why Join?)
  • Login
  • US Flag 
10:48AM EDT


 

Airport Tracker/Info


-or-


 

Live Flight TrackerFlight Track Log ✈ CHH7668 ✈ 23-Nov-2013 ✈ ZUCK / CKG - ZLXY / XIY

Flight Track Log - Related Links

Times and Time Zones

All times are in EST time to prevent confusion due to time zone crossing. See the CHH7668 flight status page for this flight to view local times or setup timezone preferences in your user account.

Time Position Orientation Groundspeed Altitude Reporting Facility
EST Latitude Longitude Course Direction KTS MPH feet Rate Location/Type
10:38AM 32.4284 107.8215 20° North  Level Estimated
10:39AM 32.5636 107.8824 21° North  Level Estimated
10:40AM 32.6987 107.9434 21° North  Level Estimated
10:41AM 32.8338 108.0046 21° North  Level Estimated
10:42AM 32.9689 108.0660 21° North  Level Estimated
10:43AM 33.1039 108.1276 21° North  Level Estimated
10:44AM 33.2389 108.1894 21° North  Level Estimated
10:45AM 33.3739 108.2514 21° North  Level Estimated
10:46AM 33.5089 108.3135 21° North  Level Estimated
10:47AM 33.6438 108.3759 21° North  Level Estimated
10:48AM 33.7787 108.4385 21° North  Level Estimated
10:49AM 33.9135 108.5012 21° North  Level Estimated
10:50AM 34.0484 108.5641 21° North  Level Estimated
10:51AM 34.1832 108.6273 21° North  Level Estimated
10:52AM 34.3179 108.6907 21° North  Level Estimated
10:53AM 34.4471 108.7516 21° North  Level Estimated
10:54AM 34.4471 108.7516 121° Southeast  Level Estimated
10:55AM 34.4471 108.7516 121° Southeast  Level Estimated
10:56AM 34.4471 108.7516 121° Southeast  Level Estimated
10:57AM 34.4471 108.7516 121° Southeast  Level Estimated
10:58AM 34.4471 108.7516 121° Southeast  Level Estimated
10:59AM 34.4471 108.7516 121° Southeast  Level Estimated
11:00AM 34.4471 108.7516 121° Southeast  Level Estimated
11:01AM 34.4471 108.7516 121° Southeast  Level Estimated
11:02AM 34.4471 108.7516 121° Southeast  Level Estimated
11:03AM 34.4471 108.7516 121° Southeast  Level Estimated
11:04AM 34.4471 108.7516 121° Southeast  Level Estimated
11:05AM 34.4471 108.7516 121° Southeast  Level Estimated
11:06AM 34.4471 108.7516 121° Southeast  Level Estimated
11:07AM 34.4471 108.7516 121° Southeast  Level Estimated